Time;durP1;ratioP1;P1;durP2;ratioP2;P2;SDS_P1;SDS_P2;PMS_P1;PMS_P2;Temp;Humidity;BMP_temperature;BMP_pressure;BME280_temperature;BME280_humidity;BME280_pressure;Samples;Min_cycle;Max_cycle;Signal;HPM_P1;HPM_P2
2023/12/07 00:01:12;;;;;;;22.80;16.60;;;5.90;38.50;;;3.73;100.00;100947.75;4974213;28;20066;-77
2023/12/07 00:03:39;;;;;;;23.08;16.40;;;5.10;38.40;;;3.62;100.00;100934.59;4972663;28;20046;-77
2023/12/07 00:06:07;;;;;;;24.60;19.02;;;5.10;36.60;;;3.64;100.00;100933.72;4978577;28;20047;-78
2023/12/07 00:08:34;;;;;;;22.67;17.65;;;5.10;34.40;;;3.67;100.00;100944.22;4988891;28;20448;-78
2023/12/07 00:11:01;;;;;;;23.80;16.40;;;5.60;35.50;;;3.67;100.00;100939.00;4989107;28;20070;-77
2023/12/07 00:13:28;;;;;;;23.52;17.42;;;5.10;37.70;;;3.54;100.00;100922.31;4972865;28;20046;-78
2023/12/07 00:15:55;;;;;;;20.63;16.98;;;5.10;36.40;;;3.69;100.00;100947.69;4971358;28;20049;-78
2023/12/07 00:18:23;;;;;;;20.33;16.70;;;5.10;38.30;;;3.62;100.00;100938.03;4969353;28;20043;-77
2023/12/07 00:20:50;;;;;;;21.80;17.75;;;5.10;36.90;;;3.56;100.00;100922.34;4985873;28;20031;-77
2023/12/07 00:23:17;;;;;;;26.05;16.55;;;5.10;34.00;;;3.63;100.00;100950.19;4973451;28;20060;-77
2023/12/07 00:25:45;;;;;;;23.27;17.95;;;5.00;32.40;;;3.55;100.00;100946.63;4991171;28;20393;-77
2023/12/07 00:28:13;;;;;;;22.40;17.52;;;5.00;37.40;;;3.59;100.00;100965.75;4990763;28;20470;-77
2023/12/07 00:30:42;;;;;;;21.70;16.63;;;5.00;36.70;;;3.51;100.00;100957.81;4988490;28;20133;-77
2023/12/07 00:33:09;;;;;;;24.98;19.17;;;5.00;37.10;;;3.52;100.00;100954.41;4954758;28;20085;-77
2023/12/07 00:35:36;;;;;;;26.23;19.23;;;4.90;32.30;;;3.29;100.00;100922.84;4979900;28;20464;-77
2023/12/07 00:38:03;;;;;;;28.10;17.58;;;4.90;31.40;;;3.25;100.00;100924.50;4991276;28;20484;-78
2023/12/07 00:40:35;;;;;;;23.23;17.67;;;4.90;32.70;;;3.25;100.00;100933.19;4991923;28;20533;-77
2023/12/07 00:43:03;;;;;;;22.52;17.13;;;4.90;36.20;;;3.33;100.00;100942.84;4990504;28;20589;-77
2023/12/07 00:45:30;;;;;;;24.73;18.55;;;4.80;37.40;;;3.37;100.00;100958.53;4990756;28;20042;-77
2023/12/07 00:47:57;;;;;;;24.75;18.73;;;4.70;35.90;;;3.42;100.00;100975.91;4990872;28;20043;-78
2023/12/07 00:50:25;;;;;;;29.05;19.50;;;4.70;37.20;;;3.19;100.00;100937.41;4983646;28;20058;-77
2023/12/07 00:52:52;;;;;;;25.60;18.95;;;4.60;36.10;;;3.26;100.00;100962.69;4974993;28;20569;-78
2023/12/07 00:55:19;;;;;;;24.42;18.00;;;4.70;41.10;;;3.16;100.00;100958.16;4990052;28;20074;-77
2023/12/07 00:57:46;;;;;;;25.63;19.80;;;4.90;36.70;;;3.21;100.00;100969.53;4989749;28;20043;-77
2023/12/07 01:00:14;;;;;;;25.30;17.70;;;4.70;38.70;;;3.10;100.00;100956.34;4978650;28;20047;-77
2023/12/07 01:02:41;;;;;;;23.70;19.05;;;4.70;38.30;;;3.05;100.00;100952.81;4986947;28;20470;-77
2023/12/07 01:05:08;;;;;;;25.35;19.40;;;4.70;38.50;;;3.06;100.00;100955.44;4953397;28;20150;-77
2023/12/07 01:07:36;;;;;;;27.08;18.60;;;4.60;39.60;;;3.07;100.00;100972.78;4970216;28;20050;-77
2023/12/07 01:10:04;;;;;;;26.55;19.05;;;4.60;44.00;;;3.14;100.00;100976.38;4971344;28;20078;-79
2023/12/07 01:12:31;;;;;;;24.90;18.15;;;4.60;46.60;;;3.08;100.00;100971.94;4984408;28;20085;-76
2023/12/07 01:14:58;;;;;;;24.67;18.42;;;4.60;42.10;;;3.11;100.00;100991.91;4984123;28;20138;-77
2023/12/07 01:17:25;;;;;;;25.90;18.08;;;4.50;42.80;;;3.12;100.00;100994.53;4990645;28;20122;-77
2023/12/07 01:19:52;;;;;;;29.13;18.95;;;4.50;42.60;;;3.02;100.00;100990.00;4990449;28;20081;-78
2023/12/07 01:22:20;;;;;;;24.23;19.25;;;5.90;43.40;;;2.99;100.00;100995.16;4980488;28;20141;-77
2023/12/07 01:24:48;;;;;;;28.17;19.95;;;4.80;48.80;;;3.00;100.00;101006.47;4985288;28;20038;-77
2023/12/07 01:27:16;;;;;;;27.00;19.08;;;4.40;49.60;;;2.80;100.00;100973.16;4990564;28;20070;-79
2023/12/07 01:29:43;;;;;;;27.15;19.88;;;4.40;49.00;;;2.90;100.00;100993.28;4976158;28;20412;-78
2023/12/07 01:32:10;;;;;;;33.13;20.73;;;4.40;51.20;;;2.75;100.00;100973.13;4975298;28;20046;-78
2023/12/07 01:34:37;;;;;;;27.30;20.25;;;4.40;53.90;;;2.76;100.00;100971.38;4974456;28;20129;-79
2023/12/07 01:37:04;;;;;;;25.92;20.00;;;4.30;51.80;;;2.77;100.00;100981.81;4990974;28;20493;-78
2023/12/07 01:39:31;;;;;;;27.98;20.83;;;4.20;51.40;;;2.88;100.00;101002.78;4975467;28;20046;-78
2023/12/07 01:41:58;;;;;;;26.23;19.92;;;4.30;50.60;;;2.74;100.00;100992.16;4990833;28;20055;-79
2023/12/07 01:44:27;;;;;;;24.85;19.23;;;4.20;51.40;;;2.49;100.00;100957.91;4989658;28;20181;-78
2023/12/07 01:46:55;;;;;;;29.13;20.47;;;4.20;50.50;;;2.72;100.00;100998.16;4990164;28;20053;-79
2023/12/07 01:49:22;;;;;;;26.60;21.13;;;4.20;50.00;;;2.71;100.00;100996.41;4981013;28;20074;-78
2023/12/07 01:51:49;;;;;;;26.92;19.40;;;4.10;51.00;;;2.72;100.00;101019.81;4974615;28;20043;-79
2023/12/07 01:54:16;;;;;;;29.15;20.85;;;4.20;52.10;;;2.62;100.00;101003.16;4989062;28;20054;-78
2023/12/07 01:56:43;;;;;;;26.73;19.50;;;4.10;51.70;;;2.46;100.00;100975.16;4976559;28;20401;-78
2023/12/07 01:59:11;;;;;;;26.23;19.77;;;4.10;53.80;;;2.54;100.00;100995.22;4990873;28;20075;-78
2023/12/07 02:01:38;;;;;;;29.48;20.70;;;4.20;54.50;;;2.63;100.00;101004.06;4975799;28;20141;-78
2023/12/07 02:04:05;;;;;;;28.90;20.88;;;4.10;52.60;;;2.54;100.00;100984.84;4959399;28;20063;-78
2023/12/07 02:06:33;;;;;;;27.27;20.38;;;4.10;50.50;;;2.65;100.00;100991.97;4988724;28;20146;-79
2023/12/07 02:09:00;;;;;;;34.67;21.92;;;4.10;53.90;;;2.72;100.00;101006.81;4989394;28;20045;-78
2023/12/07 02:11:28;;;;;;;24.40;19.77;;;4.20;52.20;;;2.64;100.00;100998.00;4975188;28;20061;-79
2023/12/07 02:13:57;;;;;;;25.55;18.10;;;4.20;49.20;;;2.48;100.00;100991.63;4982368;28;20081;-78
2023/12/07 02:16:37;;;;;;;25.30;18.75;;;4.10;40.70;;;2.54;100.00;100997.81;4989597;28;20066;-78
2023/12/07 02:19:44;;;;;;;25.20;18.48;;;4.10;32.70;;;2.58;100.00;101016.97;4990860;28;20043;-78
2023/12/07 02:22:21;;;;;;;25.35;18.35;;;4.10;37.40;;;2.59;100.00;101010.06;4986059;28;20078;-78
2023/12/07 02:25:07;;;;;;;25.15;18.85;;;4.10;40.50;;;2.38;100.00;100991.47;4973563;28;20500;-77
2023/12/07 02:27:36;;;;;;;27.05;19.52;;;4.00;24.70;;;2.52;100.00;101009.06;4970311;28;20137;-78
2023/12/07 02:30:05;;;;;;;26.27;19.40;;;4.00;26.20;;;2.35;100.00;100991.41;4986388;28;20058;-76
2023/12/07 02:32:32;;;;;;;25.95;19.55;;;3.90;36.00;;;2.34;100.00;100974.09;4968595;28;20050;-77
2023/12/07 02:35:00;;;;;;;28.40;20.20;;;5.00;37.10;;;2.39;100.00;100984.53;4968770;28;20070;-76
2023/12/07 02:37:30;;;;;;;29.35;20.55;;;4.00;40.30;;;2.36;100.00;100987.97;4954083;28;20081;-81
2023/12/07 02:39:57;;;;;;;25.48;18.88;;;3.90;36.30;;;2.31;100.00;100996.53;4986094;28;20043;-78
2023/12/07 02:42:26;;;;;;;27.23;18.98;;;5.20;19.90;;;1.78;100.00;100957.38;4986703;28;20050;-79
2023/12/07 02:44:54;;;;;;;23.90;16.63;;;3.70;1.00;;;1.93;100.00;101000.91;4955844;28;20046;-78
2023/12/07 02:47:21;;;;;;;27.88;18.08;;;3.70;1.00;;;1.66;100.00;100968.34;4977740;28;20118;-78
2023/12/07 02:49:48;;;;;;;22.58;16.85;;;3.50;1.00;;;1.85;100.00;101010.28;4985503;28;20410;-78
2023/12/07 02:52:15;;;;;;;21.58;17.02;;;3.50;9.10;;;1.95;100.00;101007.06;4987274;28;20046;-79
2023/12/07 02:54:42;;;;;;;23.13;17.83;;;3.50;28.20;;;2.01;100.00;101024.44;4973071;28;20046;-79
2023/12/07 02:57:09;;;;;;;19.25;15.18;;;3.50;26.70;;;1.89;100.00;101014.69;4985047;28;20050;-77
2023/12/07 02:59:39;;;;;;;20.52;16.60;;;3.50;3.40;;;1.59;100.00;100979.41;4970789;28;20045;-78
2023/12/07 03:02:06;;;;;;;20.73;16.27;;;3.30;1.00;;;1.59;100.00;101007.09;4970643;28;20043;-79
2023/12/07 03:04:33;;;;;;;24.80;17.83;;;3.20;1.00;;;1.34;100.00;100997.03;4985672;28;20060;-76
2023/12/07 03:07:00;;;;;;;21.30;16.70;;;3.10;1.00;;;1.36;100.00;101002.22;4984107;28;20055;-78
2023/12/07 03:09:27;;;;;;;21.02;16.70;;;3.10;1.00;;;1.37;100.00;100984.13;4988145;28;20122;-78
2023/12/07 03:11:54;;;;;;;21.17;15.80;;;3.10;9.20;;;1.31;100.00;100983.09;4979970;28;20081;-79
2023/12/07 03:14:21;;;;;;;22.65;14.80;;;3.00;8.50;;;0.89;100.00;100936.31;4967422;28;20134;-77
2023/12/07 03:16:48;;;;;;;23.48;15.77;;;3.00;2.40;;;1.36;100.00;101015.19;4974056;28;20113;-79
2023/12/07 03:19:15;;;;;;;21.42;15.75;;;3.00;1.00;;;1.32;100.00;101001.25;4955062;28;20047;-78
2023/12/07 03:21:45;;;;;;;20.35;15.18;;;2.90;19.30;;;1.23;100.00;101009.69;4987055;28;20058;-79
2023/12/07 03:24:12;;;;;;;21.85;15.75;;;2.90;1.00;;;0.72;100.00;100940.19;4962248;28;20118;-78
2023/12/07 03:26:39;;;;;;;21.17;16.05;;;2.80;1.00;;;0.97;100.00;100991.78;4968430;28;20130;-78
2023/12/07 03:29:06;;;;;;;21.30;15.70;;;2.80;1.00;;;1.03;100.00;101005.75;4952369;28;20085;-77
2023/12/07 03:31:33;;;;;;;21.15;14.82;;;2.70;1.00;;;0.88;100.00;101001.91;4984200;28;20045;-77
2023/12/07 03:34:01;;;;;;;21.35;16.70;;;2.60;1.00;;;0.58;100.00;100970.91;4983262;28;20050;-77
2023/12/07 03:36:28;;;;;;;22.80;16.55;;;2.50;1.00;;;0.76;100.00;101019.72;4983772;28;20039;-78
2023/12/07 03:38:58;;;;;;;19.63;14.00;;;2.60;1.00;;;0.74;100.00;101034.34;4967855;28;20488;-77
2023/12/07 03:41:25;;;;;;;18.52;14.18;;;2.50;1.00;;;0.56;100.00;101030.44;4967643;28;20050;-77
2023/12/07 03:43:52;;;;;;;18.58;14.65;;;2.40;1.00;;;0.32;100.00;100994.38;4967394;28;20042;-77
2023/12/07 03:46:19;;;;;;;17.35;14.27;;;2.30;1.00;;;0.46;100.00;101006.00;4983281;28;20038;-77
2023/12/07 03:48:46;;;;;;;23.35;15.98;;;2.40;7.40;;;0.58;100.00;101022.72;4983739;28;20541;-77
2023/12/07 03:51:16;;;;;;;23.13;16.45;;;2.30;29.70;;;0.53;100.00;101009.63;4984276;28;20049;-77
2023/12/07 03:53:43;;;;;;;23.02;14.80;;;2.30;33.20;;;0.54;100.00;101020.00;4983411;28;20047;-77
2023/12/07 03:56:10;;;;;;;19.13;15.52;;;2.20;8.60;;;0.55;100.00;101033.84;4983421;28;20047;-78
2023/12/07 03:58:38;;;;;;;18.67;14.10;;;2.30;1.30;;;0.51;100.00;101030.28;4983828;28;20043;-77
2023/12/07 04:01:05;;;;;;;22.38;15.98;;;2.10;1.00;;;0.39;100.00;101009.22;4987205;28;20050;-77
2023/12/07 04:03:32;;;;;;;20.40;16.20;;;2.20;1.00;;;0.38;100.00;101012.66;4971737;28;20107;-77
2023/12/07 04:05:59;;;;;;;17.52;13.48;;;2.20;1.00;;;0.33;100.00;101006.47;4987864;28;20039;-78
2023/12/07 04:08:27;;;;;;;19.00;15.18;;;2.00;3.10;;;0.56;100.00;101020.97;4984918;28;20103;-77
2023/12/07 04:10:54;;;;;;;20.45;14.88;;;2.10;17.80;;;0.59;100.00;101032.22;4987658;28;20108;-78
2023/12/07 04:13:20;;;;;;;21.48;15.43;;;2.20;8.70;;;0.36;100.00;101024.69;4985308;28;20134;-78
2023/12/07 04:15:47;;;;;;;20.35;14.48;;;2.10;1.00;;;0.14;100.00;101011.13;4992473;28;20086;-78
2023/12/07 04:18:15;;;;;;;17.70;14.00;;;1.90;1.00;;;0.05;100.00;101027.25;4994042;28;20470;-77
2023/12/07 04:20:42;;;;;;;19.15;14.10;;;1.80;1.00;;;0.06;100.00;101038.47;4993504;28;20077;-78
2023/12/07 04:23:10;;;;;;;19.60;14.82;;;1.80;1.00;;;-0.02;100.00;101030.50;4992303;28;20051;-78
2023/12/07 04:25:37;;;;;;;19.17;13.70;;;1.50;1.00;;;-0.12;100.00;101037.09;4977864;28;20054;-77
2023/12/07 04:28:07;;;;;;;21.20;15.25;;;1.60;1.00;;;-0.08;100.00;101038.06;4967925;28;20062;-78
2023/12/07 04:30:34;;;;;;;21.70;15.27;;;1.50;1.10;;;-0.16;100.00;101028.38;4993066;28;20070;-78
2023/12/07 04:33:01;;;;;;;20.08;14.57;;;1.60;2.80;;;-0.07;100.00;101042.41;4986166;28;20047;-78
2023/12/07 04:35:29;;;;;;;20.08;15.57;;;1.50;13.30;;;-0.18;100.00;101021.41;4975747;28;20118;-78
2023/12/07 04:37:56;;;;;;;20.13;15.02;;;1.60;6.80;;;-0.21;100.00;101017.00;4974751;28;20050;-77
2023/12/07 04:40:25;;;;;;;22.35;16.23;;;1.60;20.70;;;-0.15;100.00;101024.97;4976589;28;20359;-78
2023/12/07 04:42:52;;;;;;;20.25;15.13;;;1.50;30.40;;;-0.02;100.00;101052.06;4976111;28;20292;-77
2023/12/07 04:45:19;;;;;;;23.67;15.75;;;2.20;34.40;;;-0.04;100.00;101039.91;4982728;28;20050;-77
2023/12/07 04:47:47;;;;;;;22.88;15.50;;;1.60;41.30;;;-0.03;100.00;101055.50;4976372;28;20046;-77
2023/12/07 04:50:14;;;;;;;21.00;14.48;;;1.70;39.70;;;0.02;100.00;101057.34;4982762;28;20050;-78
2023/12/07 04:52:41;;;;;;;24.05;14.95;;;1.70;44.20;;;-0.08;100.00;101044.16;4988185;28;20051;-78
2023/12/07 04:55:08;;;;;;;21.38;15.95;;;1.60;46.90;;;-0.16;100.00;101063.72;4987652;28;20047;-78
2023/12/07 04:57:36;;;;;;;18.73;14.63;;;1.70;48.60;;;-0.16;100.00;101061.13;4988411;28;20404;-78
2023/12/07 05:00:09;;;;;;;21.90;15.82;;;1.40;48.00;;;-0.22;100.00;101053.19;4988141;28;20090;-79
2023/12/07 05:02:36;;;;;;;22.73;16.67;;;1.50;48.80;;;-0.20;100.00;101065.31;4979413;28;20054;-80
2023/12/07 05:05:03;;;;;;;24.27;16.75;;;1.50;54.90;;;-0.12;100.00;101068.13;4954911;28;20114;-80
2023/12/07 05:07:30;;;;;;;25.15;17.77;;;1.50;55.10;;;-0.31;100.00;101041.69;4972063;28;20129;-78
2023/12/07 05:09:57;;;;;;;23.85;16.73;;;1.40;49.30;;;-0.47;100.00;101000.69;4971827;28;20054;-79
2023/12/07 05:12:24;;;;;;;28.85;19.88;;;1.50;51.70;;;-0.22;100.00;101042.84;4972214;28;20074;-80
2023/12/07 05:14:52;;;;;;;22.27;15.35;;;1.50;47.90;;;-0.30;100.00;101030.53;4971481;28;20047;-79
2023/12/07 05:17:19;;;;;;;27.80;17.95;;;1.50;48.80;;;-0.21;100.00;101049.75;4987506;28;20432;-78
2023/12/07 05:19:46;;;;;;;26.60;17.75;;;1.50;43.40;;;-0.17;100.00;101068.00;4971967;28;20083;-79
2023/12/07 05:22:14;;;;;;;25.70;17.65;;;2.40;39.90;;;-0.33;100.00;101053.72;4986403;28;20070;-79
2023/12/07 05:24:41;;;;;;;26.05;18.58;;;1.50;34.70;;;-0.50;100.00;101031.63;4970498;28;20062;-79
2023/12/07 05:27:08;;;;;;;26.42;17.50;;;1.60;26.70;;;-0.40;100.00;101038.81;4987305;28;20070;-79
2023/12/07 05:29:35;;;;;;;26.77;18.90;;;1.40;37.00;;;-0.39;100.00;101038.00;4981833;28;20082;-78
2023/12/07 05:32:06;;;;;;;26.25;15.90;;;1.50;32.00;;;-0.71;100.00;100988.72;4971201;28;20046;-79
2023/12/07 05:34:35;;;;;;;23.40;17.40;;;1.30;25.60;;;-0.35;100.00;101036.38;4974671;28;20057;-79
2023/12/07 05:37:04;;;;;;;26.33;16.47;;;1.20;29.60;;;-0.26;100.00;101072.88;4974517;28;20130;-79
2023/12/07 05:39:31;;;;;;;23.83;16.27;;;1.30;23.60;;;-0.43;100.00;101051.66;4987631;28;20324;-76
2023/12/07 05:41:58;;;;;;;25.10;16.23;;;1.30;19.90;;;-0.47;100.00;101048.13;4991288;28;20065;-79
2023/12/07 05:44:25;;;;;;;21.92;15.48;;;1.20;13.20;;;-0.50;100.00;101057.47;4982763;28;20118;-79
2023/12/07 05:46:52;;;;;;;20.58;15.45;;;1.30;17.50;;;-0.42;100.00;101053.41;4983789;28;20063;-78
2023/12/07 05:49:21;;;;;;;23.50;14.25;;;1.40;25.00;;;-0.45;100.00;101050.72;4962284;28;20570;-78
2023/12/07 05:51:49;;;;;;;29.58;19.27;;;1.20;17.30;;;-0.41;100.00;101057.75;4987250;28;20441;-79
2023/12/07 05:54:16;;;;;;;23.73;15.80;;;1.30;18.70;;;-0.41;100.00;101059.47;4986356;28;20568;-80
2023/12/07 05:56:43;;;;;;;25.83;16.77;;;2.10;19.20;;;-0.43;100.00;101054.25;4970317;28;20105;-79
2023/12/07 05:59:10;;;;;;;23.75;15.93;;;1.30;17.20;;;-0.47;100.00;101055.88;4970233;28;20042;-79
2023/12/07 06:01:38;;;;;;;23.33;16.15;;;1.20;12.70;;;-1.15;100.00;100947.69;4971239;28;20053;-81
2023/12/07 06:04:09;;;;;;;21.52;14.48;;;2.70;13.50;;;-0.63;100.00;101058.75;4982630;28;20050;-79
2023/12/07 06:06:36;;;;;;;21.02;15.30;;;1.10;3.80;;;-0.60;100.00;101056.28;4990108;28;20057;-80
2023/12/07 06:09:05;;;;;;;19.35;15.43;;;1.10;7.00;;;-0.66;100.00;101067.31;4988289;28;20109;-78
2023/12/07 06:11:34;;;;;;;20.88;14.80;;;1.10;1.00;;;-0.63;100.00;101074.25;4985989;28;20066;-79
2023/12/07 06:14:02;;;;;;;25.20;16.50;;;1.20;3.20;;;-0.70;100.00;101060.28;4970324;28;20051;-79
2023/12/07 06:16:32;;;;;;;20.85;15.20;;;0.90;4.10;;;-0.67;100.00;101055.22;4987487;28;20066;-79
2023/12/07 06:18:59;;;;;;;27.00;16.65;;;0.80;8.10;;;-0.66;100.00;101069.00;4987321;28;20059;-79
2023/12/07 06:21:29;;;;;;;25.67;16.45;;;0.90;1.50;;;-0.81;100.00;101052.16;4996215;28;20047;-80
2023/12/07 06:23:56;;;;;;;;;;;0.90;1.20;;;-0.79;100.00;101053.06;4971157;28;20045;-79
2023/12/07 06:26:23;;;;;;;25.05;15.57;;;0.80;13.70;;;-0.69;100.00;101074.06;5003795;28;20380;-79
2023/12/07 06:28:51;;;;;;;25.30;17.05;;;1.10;10.30;;;-0.67;100.00;101078.47;4987766;28;20039;-79
2023/12/07 06:31:21;;;;;;;26.20;17.23;;;1.10;9.50;;;-0.77;100.00;101058.31;4971873;28;20046;-79
2023/12/07 06:33:49;;;;;;;30.30;18.42;;;1.10;1.00;;;-0.67;100.00;101065.56;4984501;28;20505;-79
2023/12/07 06:36:24;;;;;;;32.65;19.00;;;1.00;23.80;;;-0.64;100.00;101078.56;4995347;28;20505;-79
2023/12/07 06:38:51;;;;;;;25.48;17.85;;;0.90;12.70;;;-0.83;100.00;101064.16;4988238;28;20050;-80
2023/12/07 06:41:18;;;;;;;25.02;17.60;;;1.00;2.30;;;-0.96;100.00;101069.72;4985868;28;20145;-79
2023/12/07 06:43:45;;;;;;;31.92;19.45;;;1.10;3.30;;;-1.06;100.00;101073.69;4994972;28;20142;-83
2023/12/07 06:46:13;;;;;;;39.67;24.65;;;0.80;1.00;;;-1.14;100.00;101076.00;4941843;28;20054;-82
2023/12/07 06:48:41;;;;;;;53.80;31.35;;;0.60;1.00;;;-1.23;100.00;101073.97;4996273;28;20042;-81
2023/12/07 06:51:08;;;;;;;72.07;35.78;;;0.70;1.00;;;-1.34;100.00;101045.19;4996849;28;20059;-81
2023/12/07 06:53:35;;;;;;;197.88;90.45;;;-0.20;8.00;;;-1.25;100.00;101042.06;4964996;28;20830;-81
2023/12/07 06:56:02;;;;;;;124.70;68.25;;;1.90;4.80;;;-1.13;100.00;101085.50;4980749;28;20433;-81
2023/12/07 06:58:30;;;;;;;83.53;46.95;;;2.10;1.00;;;-1.37;100.00;101039.03;4996407;28;20043;-81
2023/12/07 07:00:57;;;;;;;88.75;55.30;;;1.50;2.60;;;-1.09;100.00;101071.00;4995688;28;20322;-81
2023/12/07 07:03:27;;;;;;;75.72;50.30;;;0.50;12.10;;;-1.44;100.00;101035.34;4986899;28;20051;-80
2023/12/07 07:05:55;;;;;;;65.30;44.58;;;0.90;14.60;;;-1.31;100.00;101028.94;4992588;28;20051;-80
2023/12/07 07:08:22;;;;;;;65.50;39.45;;;0.30;26.70;;;-1.54;100.00;100981.66;4995689;28;20050;-81
2023/12/07 07:10:49;;;;;;;62.65;38.42;;;1.80;27.70;;;-1.11;100.00;101052.00;4980179;28;20132;-81
2023/12/07 07:13:19;;;;;;;58.20;35.20;;;0.60;28.50;;;-1.23;100.00;101035.22;4978993;28;20051;-81
2023/12/07 07:15:47;;;;;;;71.47;40.45;;;0.80;23.40;;;-0.93;100.00;101069.84;4977054;28;20043;-82
2023/12/07 07:18:15;;;;;;;117.53;61.45;;;2.50;23.00;;;-0.92;100.00;101056.97;4984699;28;20097;-80
2023/12/07 07:20:42;;;;;;;112.07;54.35;;;0.70;30.90;;;-1.02;100.00;101044.53;4988642;28;20053;-81
2023/12/07 07:23:10;;;;;;;95.78;50.40;;;1.80;38.70;;;-0.91;100.00;101088.84;4978935;28;20046;-80
2023/12/07 07:25:38;;;;;;;104.57;55.80;;;0.70;40.20;;;-0.92;100.00;101080.22;4967602;28;20502;-80
2023/12/07 07:28:05;;;;;;;124.97;64.93;;;0.90;45.70;;;-0.80;100.00;101087.50;4992934;28;20113;-79
2023/12/07 07:30:33;;;;;;;122.10;61.83;;;0.80;48.70;;;-0.76;100.00;101104.88;5005133;28;20062;-80
2023/12/07 07:33:01;;;;;;;112.32;63.72;;;2.40;49.80;;;-0.75;100.00;101104.06;4961059;28;20051;-80
2023/12/07 07:35:28;;;;;;;114.05;62.08;;;2.20;49.80;;;-0.70;100.00;101101.63;4993814;28;20057;-80
2023/12/07 07:37:56;;;;;;;121.25;61.60;;;2.00;52.10;;;-0.76;100.00;101091.06;4961520;28;20050;-80
2023/12/07 07:40:24;;;;;;;99.45;54.30;;;1.10;47.40;;;-0.80;100.00;101082.31;4960010;28;20044;-80
2023/12/07 07:42:52;;;;;;;91.47;50.25;;;1.60;50.20;;;-1.13;100.00;101025.25;4970873;28;20043;-80
2023/12/07 07:45:19;;;;;;;80.00;46.90;;;1.60;42.80;;;-1.39;100.00;101004.53;4994882;28;20038;-80
2023/12/07 07:47:46;;;;;;;58.70;38.70;;;0.90;44.20;;;-0.72;100.00;101105.84;5010368;28;20066;-80
2023/12/07 07:50:13;;;;;;;53.83;34.58;;;1.10;40.00;;;-1.37;100.00;100998.63;4984421;28;20078;-80
2023/12/07 07:52:41;;;;;;;54.10;35.50;;;1.80;36.60;;;-0.55;100.00;101124.53;4999188;28;20050;-80
2023/12/07 07:55:10;;;;;;;50.45;32.38;;;1.10;39.80;;;-0.69;100.00;101087.88;4981193;28;20488;-80
2023/12/07 07:57:37;;;;;;;52.10;32.35;;;2.40;40.20;;;-1.18;100.00;101010.44;4997565;28;20046;-80
2023/12/07 08:00:08;;;;;;;44.08;27.83;;;1.10;40.20;;;-0.64;100.00;101090.59;4998099;28;20069;-80
2023/12/07 08:02:38;;;;;;;40.78;26.40;;;1.30;42.20;;;-0.33;100.00;101127.81;4983532;28;20129;-79
2023/12/07 08:05:05;;;;;;;;;;;1.70;41.80;;;-0.30;100.00;101126.22;4980862;28;20058;-80
2023/12/07 08:07:32;;;;;;;31.95;22.77;;;1.50;43.90;;;-0.67;100.00;101049.16;4982308;28;19958;-80
2023/12/07 08:10:00;;;;;;;39.25;23.95;;;1.40;45.40;;;-0.87;100.00;101023.53;5000439;28;20067;-80
2023/12/07 08:12:27;;;;;;;37.30;23.95;;;2.60;50.50;;;-0.34;100.00;101056.25;4985097;28;20039;-81
2023/12/07 08:14:54;;;;;;;35.20;22.55;;;2.00;51.40;;;-0.38;100.00;101052.69;5002596;28;20057;-81
2023/12/07 08:17:21;;;;;;;38.42;25.00;;;2.90;54.70;;;-0.31;100.00;101036.53;5003568;28;20126;-80
2023/12/07 08:19:48;;;;;;;41.92;27.45;;;2.80;54.80;;;0.07;100.00;101084.22;4996008;28;20038;-81
2023/12/07 08:22:16;;;;;;;40.40;25.70;;;1.70;54.90;;;0.10;100.00;101077.44;5005274;28;20055;-81
2023/12/07 08:24:43;;;;;;;35.92;24.20;;;3.10;56.20;;;-0.05;100.00;101053.69;5002927;28;20042;-80
2023/12/07 08:27:12;;;;;;;37.33;24.70;;;2.50;57.50;;;-0.39;100.00;100962.13;4996445;28;20043;-80
2023/12/07 08:29:39;;;;;;;35.50;22.40;;;3.20;57.30;;;-0.01;100.00;101035.72;4996850;28;20367;-80
2023/12/07 08:32:07;;;;;;;31.13;21.65;;;2.10;56.20;;;-0.08;100.00;101010.50;4990994;28;20070;-81
2023/12/07 08:34:34;;;;;;;34.15;22.65;;;2.80;55.80;;;0.14;100.00;101031.84;4978768;28;20047;-79
2023/12/07 08:37:03;;;;;;;29.48;21.17;;;2.40;57.20;;;-0.25;100.00;100953.09;4974539;28;20083;-80
2023/12/07 08:39:30;;;;;;;26.27;20.52;;;2.00;56.70;;;0.45;100.00;101053.44;4995069;28;20097;-80
2023/12/07 08:41:57;;;;;;;35.10;22.95;;;2.10;57.00;;;0.14;100.00;100980.06;4962659;28;20051;-79
2023/12/07 08:44:24;;;;;;;33.95;23.52;;;1.90;57.70;;;0.22;100.00;100978.56;4996902;28;20049;-79
2023/12/07 08:46:51;;;;;;;27.30;20.45;;;3.10;58.50;;;0.07;100.00;100955.72;4980365;28;20082;-80
2023/12/07 08:49:18;;;;;;;30.60;20.77;;;2.90;59.10;;;0.23;100.00;100964.78;4995973;28;20050;-80
2023/12/07 08:51:46;;;;;;;35.88;23.58;;;3.50;60.20;;;0.77;100.00;101052.56;5000048;28;20051;-81
2023/12/07 08:54:33;;;;;;;28.83;19.75;;;3.40;61.60;;;0.91;100.00;101048.63;4980631;28;20409;-81
2023/12/07 08:57:01;;;;;;;31.45;21.48;;;2.40;61.40;;;1.03;100.00;101086.09;4979544;28;20409;-80
2023/12/07 08:59:28;;;;;;;29.75;21.52;;;2.60;60.90;;;1.02;100.00;101050.63;4977087;28;20528;-80
2023/12/07 09:01:55;;;;;;;33.45;22.20;;;2.70;62.40;;;0.46;100.00;100953.31;4994411;28;20035;-81
2023/12/07 09:04:22;;;;;;;31.13;22.17;;;2.60;62.60;;;1.17;100.00;101044.97;4989224;28;20118;-80
2023/12/07 09:06:49;;;;;;;34.88;22.35;;;2.90;63.10;;;0.84;100.00;100979.38;4978392;28;20157;-80
2023/12/07 09:09:16;;;;;;;31.38;22.40;;;2.70;63.50;;;0.76;100.00;100967.91;4982362;28;20126;-80
2023/12/07 09:11:43;;;;;;;32.75;21.77;;;2.80;61.70;;;1.39;100.00;101051.56;4959617;28;20042;-82
2023/12/07 09:14:11;;;;;;;31.33;21.00;;;3.00;62.00;;;0.96;100.00;100964.13;4981818;28;20062;-80
2023/12/07 09:16:45;;;;;;;29.90;21.38;;;3.90;62.20;;;1.03;100.00;100983.31;4979436;28;20053;-80
2023/12/07 09:19:13;;;;;;;31.67;21.95;;;3.90;61.40;;;1.57;100.00;101052.88;4978411;28;20669;-80
2023/12/07 09:21:41;;;;;;;34.33;23.05;;;4.40;60.00;;;1.73;100.00;101064.47;4971871;28;20732;-81
2023/12/07 09:24:08;;;;;;;35.75;23.83;;;1.90;59.90;;;1.25;100.00;100976.03;4998712;28;20050;-80
2023/12/07 09:26:36;;;;;;;29.23;21.17;;;4.10;62.10;;;1.30;100.00;100977.03;4982165;28;20081;-80
2023/12/07 09:29:04;;;;;;;32.35;22.02;;;4.20;60.50;;;1.26;100.00;100972.63;4991839;28;20436;-80
2023/12/07 09:31:31;;;;;;;26.95;20.75;;;3.40;56.90;;;1.22;100.00;100942.28;4992564;28;20053;-79
2023/12/07 09:33:58;;;;;;;29.95;21.63;;;3.50;54.70;;;1.77;100.00;101023.06;4957417;28;20536;-80
2023/12/07 09:36:39;;;;;;;32.60;19.52;;;5.10;54.00;;;1.95;100.00;101047.69;4975243;28;20500;-79
2023/12/07 09:39:06;;;;;;;30.60;21.40;;;3.60;52.50;;;2.05;100.00;101057.44;4975651;28;20035;-80
2023/12/07 09:41:33;;;;;;;32.67;23.02;;;3.50;50.40;;;2.12;100.00;101067.09;4972282;28;20445;-79
2023/12/07 09:44:00;;;;;;;36.00;22.65;;;3.60;51.30;;;1.94;100.00;101018.25;4967933;28;20054;-80
2023/12/07 09:46:29;;;;;;;30.30;21.95;;;3.70;54.00;;;1.74;100.00;100970.22;4990833;28;20085;-81
2023/12/07 09:48:57;;;;;;;35.88;24.50;;;3.70;54.10;;;2.15;100.00;101024.75;4991782;28;20069;-80
2023/12/07 09:51:26;;;;;;;36.45;24.58;;;3.80;56.70;;;2.01;100.00;100988.09;4975955;28;20102;-81
2023/12/07 09:53:57;;;;;;;32.63;23.52;;;4.40;59.80;;;2.10;100.00;100985.72;4961768;28;20078;-79
2023/12/07 09:56:24;;;;;;;36.45;23.02;;;3.80;59.20;;;2.49;100.00;101046.22;4975542;28;20042;-80
2023/12/07 09:58:52;;;;;;;33.25;23.00;;;5.00;60.70;;;2.55;100.00;101032.50;4988524;28;20129;-80
2023/12/07 10:01:19;;;;;;;37.83;24.45;;;4.00;62.00;;;2.26;100.00;100988.63;4970466;28;20051;-79
2023/12/07 10:03:47;;;;;;;32.33;23.05;;;4.10;59.70;;;2.58;100.00;101023.91;4995965;28;20042;-81
2023/12/07 10:06:15;;;;;;;34.78;24.13;;;4.10;57.00;;;2.57;100.00;101020.41;4980182;28;20061;-80
2023/12/07 10:08:44;;;;;;;43.40;24.30;;;5.10;58.10;;;2.38;100.00;100982.78;4987925;28;20054;-81